Terminal Aerodrome Forecast
Issued by NWS

Home | Current Version | Previous Version | Text Only | Print | Product List | Glossary On
Versions: 1 2 3 4 5 6 7 8 9 10 11 12 13 14 15 16 17
000
FTUS43 KOAX 071139
TAFSNY
TAF
KSNY 071139Z 0712/0812 30011KT P6SM BKN250
     FM071500 31020G32KT P6SM SCT050
     FM071900 33033G48KT P6SM SCT200
     FM080100 33021G30KT P6SM SCT200
     FM080600 32016G26KT P6SM SCT250=

USA.gov is the U.S. government's official web portal to all federal, state and local government web resources and services.